createdAt,value
2022-08-01T00:00:50.077Z,4.3
2022-08-01T00:02:49.907Z,5.0
2022-08-01T00:04:50.383Z,4.6
2022-08-01T00:06:50.382Z,4.8
2022-08-01T00:08:50.033Z,4.8
2022-08-01T00:10:49.736Z,4.9
2022-08-01T00:12:50.346Z,5.1
2022-08-01T00:14:50.165Z,5.2
2022-08-01T00:16:50.262Z,4.9
2022-08-01T00:18:50.015Z,4.9
2022-08-01T00:20:49.854Z,6.2
2022-08-01T00:22:50.401Z,5.3
2022-08-01T00:24:49.880Z,5.3
2022-08-01T00:26:49.936Z,5.3
2022-08-01T00:32:50.211Z,5.4
2022-08-01T00:34:49.665Z,5.6
2022-08-01T00:36:50.218Z,5.8
2022-08-01T00:38:49.843Z,5.8
2022-08-01T00:40:49.712Z,5.9
2022-08-01T00:42:49.547Z,6.3
2022-08-01T00:44:50.373Z,6.3
2022-08-01T00:46:50.492Z,7.0
2022-08-01T00:48:50.192Z,7.0
2022-08-01T00:50:50.130Z,6.0
2022-08-01T00:52:50.046Z,7.0
2022-08-01T00:54:49.898Z,5.7
2022-08-01T00:56:49.761Z,5.7
2022-08-01T00:58:50.544Z,5.6
2022-08-01T01:00:52.303Z,6.0
2022-08-01T01:02:50.474Z,5.9
2022-08-01T01:04:49.707Z,6.2
2022-08-01T01:06:49.668Z,6.2
2022-08-01T01:08:50.308Z,5.9
2022-08-01T01:10:50.146Z,6.3
2022-08-01T01:12:50.323Z,6.1
2022-08-01T01:14:50.181Z,5.9
2022-08-01T01:16:50.201Z,5.9
2022-08-01T01:18:50.082Z,6.2
2022-08-01T01:20:49.842Z,6.3
2022-08-01T01:22:49.541Z,6.3
2022-08-01T01:24:50.203Z,6.3
2022-08-01T01:30:49.607Z,6.4
2022-08-01T01:32:50.389Z,6.7
2022-08-01T01:34:50.443Z,6.2
2022-08-01T01:36:50.533Z,6.2
2022-08-01T01:38:50.094Z,6.4
2022-08-01T01:40:49.970Z,6.0
2022-08-01T01:42:49.578Z,6.1
2022-08-01T01:44:50.365Z,6.1
2022-08-01T01:46:50.376Z,6.1
2022-08-01T01:48:50.193Z,6.1
2022-08-01T01:50:50.164Z,7.0
2022-08-01T01:52:49.867Z,5.7
2022-08-01T01:54:49.566Z,5.7
2022-08-01T01:56:49.706Z,5.7
2022-08-01T01:58:50.230Z,5.7
2022-08-01T02:00:50.453Z,6.3
2022-08-01T02:02:50.245Z,5.9
2022-08-01T02:04:49.699Z,5.9
2022-08-01T02:06:49.641Z,6.2
2022-08-01T02:08:49.872Z,6.1
2022-08-01T02:10:49.546Z,6.1
2022-08-01T02:12:50.403Z,5.8
2022-08-01T02:14:49.989Z,5.8
2022-08-01T02:16:49.878Z,7.4
2022-08-01T02:18:50.472Z,6.2
2022-08-01T02:20:50.208Z,6.2
2022-08-01T02:22:50.207Z,6.2
2022-08-01T02:24:49.958Z,7.0
2022-08-01T02:26:50.019Z,6.1
2022-08-01T02:28:49.641Z,6.6
2022-08-01T02:30:50.307Z,5.9
2022-08-01T02:32:50.023Z,6.2
2022-08-01T02:34:50.082Z,6.2
2022-08-01T02:36:50.045Z,5.8
2022-08-01T02:38:49.665Z,6.6
2022-08-01T02:40:50.453Z,6.6
2022-08-01T02:42:50.201Z,6.4
2022-08-01T02:44:49.810Z,6.4
2022-08-01T02:46:49.808Z,6.3
2022-08-01T02:48:50.302Z,6.2
2022-08-01T02:50:50.148Z,6.4
2022-08-01T02:52:49.843Z,6.4
2022-08-01T02:54:50.426Z,5.8
2022-08-01T02:56:50.365Z,6.5
2022-08-01T02:58:50.101Z,6.5
2022-08-01T03:00:50.123Z,6.7
2022-08-01T03:02:49.921Z,6.4
2022-08-01T03:04:52.679Z,6.4
2022-08-01T03:06:49.986Z,6.4
2022-08-01T03:08:49.710Z,6.0
2022-08-01T03:10:50.462Z,6.4
2022-08-01T03:12:50.150Z,6.4
2022-08-01T03:14:50.331Z,6.7
2022-08-01T03:16:50.410Z,6.5
2022-08-01T03:18:50.085Z,6.4
2022-08-01T03:20:49.598Z,6.4
2022-08-01T03:22:50.276Z,6.4
2022-08-01T03:24:50.063Z,6.5
2022-08-01T03:26:50.042Z,6.5
2022-08-01T03:28:49.621Z,6.4
2022-08-01T03:30:50.351Z,6.3
2022-08-01T03:32:50.196Z,6.3
2022-08-01T03:34:50.396Z,6.7
2022-08-01T03:36:50.321Z,6.9
2022-08-01T03:38:50.141Z,7.0
2022-08-01T03:40:49.926Z,7.0
2022-08-01T03:42:49.786Z,6.7
2022-08-01T03:44:50.520Z,6.9
2022-08-01T03:46:49.585Z,6.6
2022-08-01T03:48:50.330Z,7.5
2022-08-01T03:50:50.121Z,7.5
2022-08-01T03:52:49.804Z,9.0
2022-08-01T03:54:50.418Z,6.4
2022-08-01T03:56:49.764Z,6.4
2022-08-01T03:58:49.963Z,6.4
2022-08-01T04:00:50.393Z,6.7
2022-08-01T04:02:50.202Z,7.0
2022-08-01T04:04:50.256Z,7.2
2022-08-01T04:06:50.200Z,6.7
2022-08-01T04:08:49.996Z,6.7
2022-08-01T04:10:50.566Z,6.7
2022-08-01T04:12:50.149Z,6.7
2022-08-01T04:14:49.760Z,7.1
2022-08-01T04:16:50.527Z,6.3
2022-08-01T04:18:50.118Z,6.9
2022-08-01T04:20:49.943Z,6.9
2022-08-01T04:22:50.540Z,6.2
2022-08-01T04:24:53.417Z,6.5
2022-08-01T04:26:50.077Z,6.4
2022-08-01T04:28:49.814Z,6.3
2022-08-01T04:30:49.554Z,6.3
2022-08-01T04:32:50.303Z,5.7
2022-08-01T04:34:50.497Z,5.9
2022-08-01T04:36:50.320Z,6.7
2022-08-01T04:38:50.121Z,6.2
2022-08-01T04:40:49.790Z,6.2
2022-08-01T04:42:50.410Z,5.9
2022-08-01T04:44:50.191Z,6.1
2022-08-01T04:46:50.424Z,6.0
2022-08-01T04:48:50.137Z,6.0
2022-08-01T04:50:50.437Z,6.4
2022-08-01T04:52:49.945Z,6.1
2022-08-01T04:54:50.484Z,5.4
2022-08-01T04:56:51.522Z,5.4
2022-08-01T04:58:49.638Z,5.7
2022-08-01T05:00:50.531Z,5.7
2022-08-01T05:02:49.780Z,5.7
2022-08-01T05:04:49.848Z,5.7
2022-08-01T05:06:50.227Z,5.7
2022-08-01T05:08:50.265Z,6.0
2022-08-01T05:10:50.021Z,5.6
2022-08-01T05:12:49.831Z,6.9
2022-08-01T05:14:49.614Z,6.9
2022-08-01T05:16:49.926Z,5.3
2022-08-01T05:18:49.751Z,5.3
2022-08-01T05:20:49.694Z,5.5
2022-08-01T05:22:49.630Z,5.2
2022-08-01T05:24:49.679Z,4.6
2022-08-01T05:26:50.507Z,4.6
2022-08-01T05:28:50.010Z,10.7
2022-08-01T05:30:49.934Z,4.6
2022-08-01T05:32:49.861Z,5.3
2022-08-01T05:34:50.016Z,6.0
2022-08-01T05:36:52.954Z,4.6
2022-08-01T05:38:49.880Z,4.6
2022-08-01T05:40:49.743Z,6.4
2022-08-01T05:42:49.736Z,4.6
2022-08-01T05:44:49.627Z,4.8
2022-08-01T05:46:49.651Z,4.8
2022-08-01T05:48:49.619Z,4.6
2022-08-01T05:50:50.017Z,4.8
2022-08-01T05:52:49.860Z,4.4
2022-08-01T05:54:49.863Z,4.1
2022-08-01T05:56:49.993Z,4.1
2022-08-01T05:58:49.663Z,4.1
2022-08-01T06:00:49.711Z,3.9
2022-08-01T06:02:49.741Z,3.8
2022-08-01T06:04:50.164Z,3.1
2022-08-01T06:06:50.300Z,3.1
2022-08-01T06:08:50.207Z,3.3
2022-08-01T06:10:50.547Z,4.2
2022-08-01T06:12:50.347Z,4.2
2022-08-01T06:14:50.113Z,3.2
2022-08-01T06:16:50.324Z,3.8
2022-08-01T06:18:52.826Z,5.7
2022-08-01T06:20:49.875Z,8.9
2022-08-01T06:22:51.808Z,5.8
2022-08-01T06:24:50.143Z,5.8
2022-08-01T06:26:50.368Z,2.5
2022-08-01T06:28:50.207Z,9.0
2022-08-01T06:30:50.217Z,6.1
2022-08-01T06:32:50.065Z,51.6
2022-08-01T06:34:50.464Z,51.6
2022-08-01T06:36:49.741Z,9.5
2022-08-01T06:38:50.463Z,3.8
2022-08-01T06:40:50.414Z,3.7
2022-08-01T06:42:50.311Z,2.3
2022-08-01T06:44:50.192Z,2.4
2022-08-01T06:46:50.371Z,2.4
2022-08-01T06:48:50.132Z,2.5
2022-08-01T06:50:50.269Z,2.4
2022-08-01T06:52:50.213Z,2.5
2022-08-01T06:54:49.999Z,2.5
2022-08-01T06:56:50.256Z,3.3
2022-08-01T06:58:50.098Z,2.6
2022-08-01T07:00:52.564Z,2.1
2022-08-01T07:02:50.585Z,2.8
2022-08-01T07:04:50.550Z,2.8
2022-08-01T07:06:49.816Z,3.3
2022-08-01T07:08:49.895Z,2.5
2022-08-01T07:10:49.805Z,5.3
2022-08-01T07:12:49.853Z,5.3
2022-08-01T07:14:49.752Z,2.5
2022-08-01T07:16:49.951Z,4.4
2022-08-01T07:18:49.832Z,3.7
2022-08-01T07:20:50.457Z,4.0
2022-08-01T07:22:49.925Z,6.7
2022-08-01T07:24:49.852Z,6.7
2022-08-01T07:26:52.783Z,2.5
2022-08-01T07:28:50.193Z,3.2
2022-08-01T07:30:50.111Z,2.4
2022-08-01T07:32:50.154Z,2.5
2022-08-01T07:34:49.746Z,2.5
2022-08-01T07:36:50.049Z,2.3
2022-08-01T07:38:50.099Z,3.3
2022-08-01T07:40:50.000Z,2.0
2022-08-01T07:42:49.928Z,2.0
2022-08-01T07:44:49.850Z,2.2
2022-08-01T07:46:50.092Z,2.8
2022-08-01T07:48:50.175Z,3.4
2022-08-01T07:50:50.562Z,3.5
2022-08-01T07:52:49.667Z,3.5
2022-08-01T07:54:52.199Z,2.7
2022-08-01T07:56:49.600Z,3.2
2022-08-01T07:58:49.929Z,2.1
2022-08-01T08:00:49.766Z,2.1
2022-08-01T08:02:49.683Z,2.2
2022-08-01T08:04:50.093Z,2.4
2022-08-01T08:06:50.275Z,2.3
2022-08-01T08:08:50.432Z,6.1
2022-08-01T08:10:50.359Z,6.1
2022-08-01T08:12:49.813Z,5.1
2022-08-01T08:14:50.301Z,14.5
2022-08-01T08:16:50.529Z,2.7
2022-08-01T08:18:50.326Z,8.4
2022-08-01T08:20:50.264Z,11.0
2022-08-01T08:22:50.355Z,11.0
2022-08-01T08:24:50.248Z,5.2
2022-08-01T08:26:50.834Z,2.4
2022-08-01T08:28:50.295Z,3.9
2022-08-01T08:30:50.388Z,3.9
2022-08-01T08:32:49.909Z,2.8
2022-08-01T08:34:50.234Z,4.0
2022-08-01T08:36:49.869Z,3.9
2022-08-01T08:38:49.942Z,3.7
2022-08-01T08:40:49.874Z,3.7
2022-08-01T08:42:49.894Z,2.4
2022-08-01T08:44:49.835Z,1.9
2022-08-01T08:46:50.011Z,1.9
2022-08-01T08:48:50.131Z,12.0
2022-08-01T08:50:50.457Z,3.1
2022-08-01T08:52:50.536Z,3.4
2022-08-01T08:54:50.452Z,3.4
2022-08-01T08:56:49.631Z,10.0
2022-08-01T08:58:49.558Z,10.0
2022-08-01T09:00:49.568Z,3.9
2022-08-01T09:02:50.521Z,5.8
2022-08-01T09:04:50.371Z,5.8
2022-08-01T09:06:49.795Z,6.4
2022-08-01T09:08:49.998Z,6.4
2022-08-01T09:10:50.007Z,4.3
2022-08-01T09:12:50.223Z,9.0
2022-08-01T09:14:49.609Z,5.8
2022-08-01T09:16:49.931Z,2.1
2022-08-01T09:18:52.789Z,2.1
2022-08-01T09:20:50.004Z,2.4
2022-08-01T09:22:50.022Z,1.4
2022-08-01T09:24:50.376Z,1.4
2022-08-01T09:26:49.698Z,6.1
2022-08-01T09:28:49.677Z,6.1
2022-08-01T09:30:49.641Z,7.7
2022-08-01T09:32:49.618Z,4.1
2022-08-01T09:34:50.239Z,3.4
2022-08-01T09:36:50.220Z,3.4
2022-08-01T09:38:50.985Z,7.6
2022-08-01T09:40:49.829Z,3.7
2022-08-01T09:42:50.339Z,5.1
2022-08-01T09:44:51.334Z,7.5
2022-08-01T09:46:49.585Z,10.6
2022-08-01T09:48:50.052Z,10.6
2022-08-01T09:50:49.913Z,8.6
2022-08-01T09:52:50.025Z,1.6
2022-08-01T09:54:50.375Z,1.8
2022-08-01T09:56:49.741Z,1.8
2022-08-01T09:58:51.708Z,8.9
2022-08-01T10:00:49.808Z,10.5
2022-08-01T10:02:50.072Z,4.5
2022-08-01T10:04:50.000Z,4.5
2022-08-01T10:06:49.986Z,2.0
2022-08-01T10:08:49.836Z,1.5
2022-08-01T10:10:49.590Z,2.0
2022-08-01T10:12:49.626Z,1.7
2022-08-01T10:14:50.174Z,9.5
2022-08-01T10:16:53.074Z,9.5
2022-08-01T10:18:49.557Z,9.5
2022-08-01T10:20:50.452Z,1.5
2022-08-01T10:22:49.831Z,1.5
2022-08-01T10:24:49.798Z,1.3
2022-08-01T10:26:50.136Z,1.3
2022-08-01T10:28:50.124Z,1.4
2022-08-01T10:30:50.457Z,1.4
2022-08-01T10:32:50.746Z,1.5
2022-08-01T10:34:49.642Z,2.4
2022-08-01T10:36:49.817Z,2.4
2022-08-01T10:38:49.924Z,1.7
2022-08-01T10:40:49.916Z,1.5
2022-08-01T10:42:50.094Z,1.5
2022-08-01T10:44:49.714Z,1.6
2022-08-01T10:46:50.201Z,1.5
2022-08-01T10:48:49.577Z,2.9
2022-08-01T10:50:49.723Z,1.4
2022-08-01T10:52:49.538Z,1.7
2022-08-01T10:54:52.112Z,1.7
2022-08-01T10:56:50.169Z,2.7
2022-08-01T10:58:49.972Z,2.1
2022-08-01T11:00:49.812Z,1.7
2022-08-01T11:02:49.714Z,4.6
2022-08-01T11:04:49.968Z,4.6
2022-08-01T11:06:50.323Z,3.5
2022-08-01T11:08:50.225Z,2.1
2022-08-01T11:10:50.188Z,2.4
2022-08-01T11:12:50.296Z,8.9
2022-08-01T11:14:55.489Z,8.9
2022-08-01T11:16:50.518Z,3.6
2022-08-01T11:18:49.755Z,7.8
2022-08-01T11:20:49.572Z,5.9
2022-08-01T11:22:50.488Z,5.9
2022-08-01T11:24:51.006Z,6.9
2022-08-01T11:26:50.469Z,2.1
2022-08-01T11:29:11.136Z,1.7
2022-08-01T11:30:50.430Z,1.7
2022-08-01T11:33:05.828Z,2.1
2022-08-01T11:34:50.004Z,2.1
2022-08-01T11:36:59.172Z,8.9
2022-08-01T11:38:49.960Z,3.5
2022-08-01T11:40:49.935Z,2.8
2022-08-01T11:42:50.523Z,1.6
2022-08-01T11:44:50.113Z,1.6
2022-08-01T11:46:51.069Z,9.6
2022-08-01T11:48:50.341Z,2.6
2022-08-01T11:50:49.876Z,1.8
2022-08-01T11:52:50.421Z,1.8
2022-08-01T11:54:50.334Z,2.3
2022-08-01T11:56:50.218Z,2.1
2022-08-01T11:58:50.142Z,2.4
2022-08-01T12:00:50.276Z,2.4
2022-08-01T12:02:50.208Z,2.1
2022-08-01T12:04:49.750Z,10.0
2022-08-01T12:06:50.255Z,2.0
2022-08-01T12:08:50.254Z,2.0
2022-08-01T12:10:50.530Z,4.2
2022-08-01T12:12:49.678Z,4.2
2022-08-01T12:14:50.091Z,1.9
2022-08-01T12:16:50.099Z,4.0
2022-08-01T12:18:50.107Z,4.4
2022-08-01T12:20:56.437Z,5.2
2022-08-01T12:22:50.187Z,5.2
2022-08-01T12:24:50.079Z,2.0
2022-08-01T12:26:50.156Z,3.8
2022-08-01T12:28:50.139Z,1.8
2022-08-01T12:30:50.498Z,1.8
2022-08-01T12:32:49.775Z,4.1
2022-08-01T12:34:50.179Z,5.1
2022-08-01T12:36:50.490Z,1.8
2022-08-01T12:38:50.514Z,1.4
2022-08-01T12:40:52.418Z,1.4
2022-08-01T12:42:50.066Z,1.7
2022-08-01T12:44:49.894Z,2.9
2022-08-01T12:46:50.277Z,9.7
2022-08-01T12:48:50.276Z,4.3
2022-08-01T12:50:49.638Z,4.3
2022-08-01T12:52:50.518Z,2.2
2022-08-01T12:54:50.539Z,3.6
2022-08-01T12:56:49.793Z,3.6
2022-08-01T12:58:49.761Z,5.0
2022-08-01T13:00:49.870Z,2.7
2022-08-01T13:02:50.180Z,3.6
2022-08-01T13:04:49.562Z,5.0
2022-08-01T13:06:49.890Z,12.1
2022-08-01T13:08:50.023Z,5.9
2022-08-01T13:10:49.978Z,5.9
2022-08-01T13:12:50.283Z,2.8
2022-08-01T13:14:50.192Z,2.1
2022-08-01T13:16:57.031Z,2.0
2022-08-01T13:18:49.684Z,1.9
2022-08-01T13:20:50.505Z,1.9
2022-08-01T13:22:49.695Z,2.3
2022-08-01T13:24:49.630Z,1.8
2022-08-01T13:26:49.983Z,2.9
2022-08-01T13:28:50.037Z,2.5
2022-08-01T13:30:49.934Z,2.5
2022-08-01T13:32:49.987Z,1.7
2022-08-01T13:34:49.591Z,1.7
2022-08-01T13:36:49.941Z,3.6
2022-08-01T13:38:49.794Z,3.6
2022-08-01T13:40:50.429Z,1.5
2022-08-01T13:42:49.597Z,3.4
2022-08-01T13:44:50.465Z,1.4
2022-08-01T13:46:51.417Z,1.3
2022-08-01T13:48:50.206Z,1.3
2022-08-01T13:51:01.964Z,8.3
2022-08-01T13:52:50.346Z,1.7
2022-08-01T13:54:50.494Z,2.7
2022-08-01T13:56:50.243Z,2.7
2022-08-01T13:58:49.574Z,1.2
2022-08-01T14:00:50.422Z,1.9
2022-08-01T14:02:50.266Z,2.3
2022-08-01T14:04:49.694Z,1.2
2022-08-01T14:06:50.099Z,1.3
2022-08-01T14:08:49.971Z,1.3
2022-08-01T14:10:49.773Z,1.4
2022-08-01T14:12:50.173Z,6.0
2022-08-01T14:14:50.426Z,2.1
2022-08-01T14:16:49.648Z,1.9
2022-08-01T14:18:49.837Z,1.9
2022-08-01T14:20:49.812Z,1.2
2022-08-01T14:22:49.693Z,1.0
2022-08-01T14:24:49.706Z,1.4
2022-08-01T14:26:50.054Z,1.4
2022-08-01T14:28:50.279Z,1.5
2022-08-01T14:30:50.327Z,1.1
2022-08-01T14:32:50.260Z,1.2
2022-08-01T14:34:50.161Z,3.0
2022-08-01T14:36:50.510Z,3.0
2022-08-01T14:38:50.351Z,1.9
2022-08-01T14:40:50.291Z,1.2
2022-08-01T14:42:49.951Z,1.2
2022-08-01T14:44:50.343Z,1.2
2022-08-01T14:46:57.429Z,1.3
2022-08-01T14:48:49.832Z,1.2
2022-08-01T14:50:50.223Z,1.6
2022-08-01T14:52:50.412Z,1.6
2022-08-01T14:54:49.680Z,1.8
2022-08-01T14:56:49.877Z,1.8
2022-08-01T14:58:49.951Z,2.7
2022-08-01T15:00:50.029Z,1.6
2022-08-01T15:02:50.147Z,1.8
2022-08-01T15:04:50.357Z,1.8
2022-08-01T15:06:49.582Z,1.7
2022-08-01T15:08:49.750Z,1.9
2022-08-01T15:10:49.695Z,1.5
2022-08-01T15:12:50.449Z,1.5
2022-08-01T15:14:49.880Z,2.0
2022-08-01T15:16:50.268Z,1.4
2022-08-01T15:18:50.071Z,1.7
2022-08-01T15:20:50.147Z,1.7
2022-08-01T15:22:50.172Z,1.5
2022-08-01T15:24:52.996Z,1.6
2022-08-01T15:26:49.666Z,2.6
2022-08-01T15:28:49.709Z,3.8
2022-08-01T15:30:49.777Z,1.5
2022-08-01T15:32:49.607Z,1.5
2022-08-01T15:34:49.799Z,2.0
2022-08-01T15:36:50.063Z,1.6
2022-08-01T15:38:49.646Z,1.5
2022-08-01T15:40:49.568Z,1.4
2022-08-01T15:42:49.587Z,1.4
2022-08-01T15:44:49.650Z,1.4
2022-08-01T15:46:50.009Z,1.5
2022-08-01T15:48:50.062Z,1.5
2022-08-01T15:50:50.286Z,1.6
2022-08-01T15:52:50.405Z,1.6
2022-08-01T15:54:50.420Z,1.5
2022-08-01T15:56:49.824Z,1.5
2022-08-01T15:58:49.828Z,1.6
2022-08-01T16:00:49.891Z,1.6
2022-08-01T16:02:49.859Z,1.6
2022-08-01T16:04:50.351Z,1.8
2022-08-01T16:06:49.623Z,1.9
2022-08-01T16:08:49.587Z,2.1
2022-08-01T16:10:49.664Z,2.1
2022-08-01T16:12:49.791Z,1.7
2022-08-01T16:14:49.786Z,1.4
2022-08-01T16:16:50.107Z,2.2
2022-08-01T16:18:53.555Z,1.7
2022-08-01T16:20:50.328Z,1.8
2022-08-01T16:22:50.317Z,1.8
2022-08-01T16:24:50.357Z,1.7
2022-08-01T16:26:49.744Z,2.6
2022-08-01T16:28:49.911Z,1.8
2022-08-01T16:31:01.397Z,1.8
2022-08-01T16:32:52.162Z,1.7
2022-08-01T16:34:50.396Z,1.9
2022-08-01T16:36:49.542Z,2.5
2022-08-01T16:38:49.571Z,1.8
2022-08-01T16:40:50.413Z,1.8
2022-08-01T16:42:50.246Z,1.6
2022-08-01T16:44:50.296Z,1.7
2022-08-01T16:46:49.593Z,1.6
2022-08-01T16:48:50.384Z,3.3
2022-08-01T16:50:49.786Z,3.3
2022-08-01T16:52:49.679Z,1.8
2022-08-01T16:54:49.685Z,1.6
2022-08-01T16:56:52.090Z,2.4
2022-08-01T16:58:50.133Z,2.0
2022-08-01T17:00:50.147Z,2.0
2022-08-01T17:02:49.665Z,1.8
2022-08-01T17:04:49.584Z,2.2
2022-08-01T17:06:49.827Z,1.8
2022-08-01T17:08:49.974Z,1.7
2022-08-01T17:10:50.211Z,1.7
2022-08-01T17:12:50.175Z,1.9
2022-08-01T17:14:50.423Z,1.8
2022-08-01T17:16:49.783Z,1.7
2022-08-01T17:18:49.783Z,1.7
2022-08-01T17:20:49.800Z,2.1
2022-08-01T17:22:49.638Z,2.0
2022-08-01T17:24:49.676Z,2.0
2022-08-01T17:26:49.894Z,2.0
2022-08-01T17:28:49.841Z,1.6
2022-08-01T17:30:49.714Z,1.9
2022-08-01T17:32:49.735Z,1.9
2022-08-01T17:34:50.337Z,1.9
2022-08-01T17:36:49.739Z,2.2
2022-08-01T17:38:49.849Z,2.2
2022-08-01T17:40:49.834Z,3.2
2022-08-01T17:42:49.869Z,2.0
2022-08-01T17:44:52.049Z,2.0
2022-08-01T17:46:49.927Z,2.0
2022-08-01T17:48:49.916Z,2.0
2022-08-01T17:50:50.185Z,2.4
2022-08-01T17:52:50.403Z,3.4
2022-08-01T17:54:50.475Z,2.3
2022-08-01T17:56:49.941Z,2.3
2022-08-01T17:58:52.042Z,2.3
2022-08-01T18:00:50.292Z,2.1
2022-08-01T18:02:50.358Z,2.1
2022-08-01T18:04:49.984Z,3.0
2022-08-01T18:06:58.633Z,3.0
2022-08-01T18:08:49.635Z,1.7
2022-08-01T18:10:50.323Z,2.1
2022-08-01T18:12:50.394Z,2.2
2022-08-01T18:14:50.373Z,2.2
2022-08-01T18:16:49.809Z,2.2
2022-08-01T18:18:49.736Z,2.1
2022-08-01T18:20:49.683Z,2.4
2022-08-01T18:22:49.573Z,2.1
2022-08-01T18:24:49.601Z,1.9
2022-08-01T18:26:50.143Z,2.2
2022-08-01T18:28:50.008Z,2.2
2022-08-01T18:30:50.146Z,2.2
2022-08-01T18:32:49.999Z,2.2
2022-08-01T18:34:49.625Z,2.1
2022-08-01T18:36:49.770Z,2.1
2022-08-01T18:38:50.154Z,2.8
2022-08-01T18:40:50.190Z,3.6
2022-08-01T18:42:50.035Z,3.6
2022-08-01T18:44:50.023Z,2.6
2022-08-01T18:46:50.365Z,2.6
2022-08-01T18:48:50.316Z,2.6
2022-08-01T18:50:49.627Z,2.5
2022-08-01T18:52:49.551Z,2.3
2022-08-01T18:54:50.496Z,2.3
2022-08-01T18:56:49.808Z,2.4
2022-08-01T18:58:49.756Z,2.4
2022-08-01T19:00:49.798Z,2.2
2022-08-01T19:02:50.251Z,2.2
2022-08-01T19:04:49.686Z,2.4
2022-08-01T19:06:49.969Z,2.4
2022-08-01T19:08:49.869Z,2.4
2022-08-01T19:10:50.341Z,2.5
2022-08-01T19:12:50.544Z,2.8
2022-08-01T19:14:50.486Z,2.6
2022-08-01T19:16:49.802Z,2.6
2022-08-01T19:18:49.854Z,2.8
2022-08-01T19:20:49.950Z,2.8
2022-08-01T19:22:49.983Z,3.2
2022-08-01T19:24:49.799Z,3.2
2022-08-01T19:26:50.007Z,3.4
2022-08-01T19:28:50.010Z,3.2
2022-08-01T19:30:53.479Z,4.8
2022-08-01T19:32:50.052Z,6.1
2022-08-01T19:34:50.469Z,6.1
2022-08-01T19:36:49.846Z,2.9
2022-08-01T19:38:49.930Z,3.0
2022-08-01T19:40:49.900Z,2.9
2022-08-01T19:42:49.989Z,2.9
2022-08-01T19:44:50.040Z,3.0
2022-08-01T19:46:49.749Z,3.5
2022-08-01T19:48:53.515Z,3.0
2022-08-01T19:50:49.701Z,3.0
2022-08-01T19:52:49.924Z,3.7
2022-08-01T19:54:49.614Z,3.0
2022-08-01T19:56:49.923Z,3.0
2022-08-01T19:58:50.032Z,3.1
2022-08-01T20:00:50.137Z,3.1
2022-08-01T20:02:50.234Z,3.1
2022-08-01T20:04:49.625Z,3.1
2022-08-01T20:06:49.850Z,3.1
2022-08-01T20:08:50.006Z,3.0
2022-08-01T20:10:49.974Z,3.0
2022-08-01T20:12:50.443Z,3.3
2022-08-01T20:14:50.478Z,3.5
2022-08-01T20:16:50.223Z,3.2
2022-08-01T20:18:50.401Z,3.7
2022-08-01T20:20:50.342Z,3.3
2022-08-01T20:22:50.422Z,3.3
2022-08-01T20:24:50.367Z,3.3
2022-08-01T20:26:49.635Z,4.4
2022-08-01T20:28:49.641Z,4.4
2022-08-01T20:30:50.039Z,3.2
2022-08-01T20:32:50.001Z,3.2
2022-08-01T20:34:50.304Z,3.7
2022-08-01T20:36:54.805Z,3.8
2022-08-01T20:38:50.296Z,3.8
2022-08-01T20:40:49.645Z,3.8
2022-08-01T20:42:49.609Z,3.8
2022-08-01T20:44:49.655Z,3.7
2022-08-01T20:46:50.102Z,6.0
2022-08-01T20:48:50.088Z,3.6
2022-08-01T20:50:52.614Z,3.6
2022-08-01T20:52:49.755Z,3.7
2022-08-01T20:54:49.810Z,3.3
2022-08-01T20:56:50.492Z,3.5
2022-08-01T20:58:50.899Z,3.8
2022-08-01T21:00:49.846Z,3.8
2022-08-01T21:02:50.284Z,3.7
2022-08-01T21:04:49.671Z,3.6
2022-08-01T21:06:50.224Z,3.4
2022-08-01T21:08:50.238Z,3.6
2022-08-01T21:10:50.346Z,3.6
2022-08-01T21:12:49.855Z,3.7
2022-08-01T21:14:50.075Z,3.6
2022-08-01T21:16:50.555Z,3.7
2022-08-01T21:19:09.973Z,4.1
2022-08-01T21:20:50.381Z,4.1
2022-08-01T21:22:50.143Z,3.7
2022-08-01T21:24:57.672Z,5.3
2022-08-01T21:26:50.030Z,3.6
2022-08-01T21:28:54.142Z,3.6
2022-08-01T21:30:53.928Z,3.5
2022-08-01T21:32:49.883Z,4.1
2022-08-01T21:34:50.512Z,4.1
2022-08-01T21:36:49.818Z,3.8
2022-08-01T21:38:49.702Z,3.8
2022-08-01T21:40:49.901Z,3.7
2022-08-01T21:42:49.849Z,3.7
2022-08-01T21:44:50.087Z,4.4
2022-08-01T21:46:50.555Z,4.4
2022-08-01T21:48:49.674Z,3.8
2022-08-01T21:50:50.141Z,3.8
2022-08-01T21:52:50.558Z,3.8
2022-08-01T21:54:49.726Z,3.7
2022-08-01T21:56:49.882Z,3.7
2022-08-01T21:58:50.114Z,3.7
2022-08-01T22:00:50.271Z,4.2
2022-08-01T22:02:53.747Z,4.0
2022-08-01T22:04:50.472Z,3.9
2022-08-01T22:06:50.233Z,3.9
2022-08-01T22:08:50.157Z,3.9
2022-08-01T22:10:50.127Z,4.9
2022-08-01T22:12:50.054Z,4.4
2022-08-01T22:14:50.088Z,4.4
2022-08-01T22:16:50.447Z,4.0
2022-08-01T22:18:50.387Z,4.1
2022-08-01T22:20:50.529Z,5.0
2022-08-01T22:22:52.394Z,4.3
2022-08-01T22:24:50.292Z,4.1
2022-08-01T22:26:49.626Z,4.2
2022-08-01T22:28:49.680Z,4.2
2022-08-01T22:30:49.669Z,4.1
2022-08-01T22:33:07.655Z,4.2
2022-08-01T22:34:49.677Z,3.9
2022-08-01T22:36:51.947Z,4.0
2022-08-01T22:38:49.730Z,4.0
2022-08-01T22:40:49.674Z,4.4
2022-08-01T22:42:49.884Z,4.2
2022-08-01T22:44:49.935Z,4.4
2022-08-01T22:46:50.150Z,4.4
2022-08-01T22:48:50.143Z,4.1
2022-08-01T22:50:49.763Z,4.3
2022-08-01T22:52:49.815Z,3.8
2022-08-01T22:54:49.897Z,3.8
2022-08-01T22:56:50.232Z,4.4
2022-08-01T22:58:50.181Z,4.7
2022-08-01T23:00:50.083Z,4.7
2022-08-01T23:02:49.889Z,5.0
2022-08-01T23:04:50.472Z,5.0
2022-08-01T23:06:49.975Z,4.8
2022-08-01T23:08:50.197Z,4.8
2022-08-01T23:10:50.105Z,4.5
2022-08-01T23:12:50.250Z,4.7
2022-08-01T23:14:50.139Z,5.2
2022-08-01T23:16:50.327Z,5.2
2022-08-01T23:18:50.512Z,4.6
2022-08-01T23:20:50.411Z,4.9
2022-08-01T23:22:50.436Z,4.9
2022-08-01T23:24:54.076Z,4.5
2022-08-01T23:26:49.841Z,4.5
2022-08-01T23:28:50.008Z,4.8
2022-08-01T23:30:50.180Z,4.8
2022-08-01T23:32:50.053Z,4.9
2022-08-01T23:34:50.038Z,4.9
2022-08-01T23:36:50.293Z,4.9
2022-08-01T23:38:50.396Z,4.7
2022-08-01T23:40:50.384Z,5.4
2022-08-01T23:42:50.388Z,5.4
2022-08-01T23:44:50.178Z,5.4
2022-08-01T23:46:50.501Z,5.4
2022-08-01T23:48:50.560Z,5.0
2022-08-01T23:50:49.993Z,4.7
2022-08-01T23:52:50.597Z,4.7
2022-08-01T23:54:50.345Z,4.7
2022-08-01T23:56:49.694Z,5.0
2022-08-01T23:58:49.668Z,4.7
